sensor_id;sensor_type;location;lat;lon;timestamp;P1;durP1;ratioP1;P2;durP2;ratioP2
67597;SDS011;62026;39.230;9.122;2023-07-16T00:00:09;18.80;;;4.20;;
67597;SDS011;62026;39.230;9.122;2023-07-16T00:02:37;20.67;;;4.38;;
67597;SDS011;62026;39.230;9.122;2023-07-16T00:05:04;19.88;;;4.38;;
67597;SDS011;62026;39.230;9.122;2023-07-16T00:07:31;16.55;;;4.15;;
67597;SDS011;62026;39.230;9.122;2023-07-16T00:09:57;17.10;;;4.40;;
67597;SDS011;62026;39.230;9.122;2023-07-16T00:12:23;14.02;;;4.72;;
67597;SDS011;62026;39.230;9.122;2023-07-16T00:14:49;16.63;;;4.13;;
67597;SDS011;62026;39.230;9.122;2023-07-16T00:17:15;17.00;;;5.05;;
67597;SDS011;62026;39.230;9.122;2023-07-16T00:19:42;21.60;;;5.43;;
67597;SDS011;62026;39.230;9.122;2023-07-16T00:22:07;15.77;;;4.70;;
67597;SDS011;62026;39.230;9.122;2023-07-16T00:24:33;11.77;;;3.72;;
67597;SDS011;62026;39.230;9.122;2023-07-16T00:26:59;16.15;;;3.60;;
67597;SDS011;62026;39.230;9.122;2023-07-16T00:29:25;15.40;;;3.58;;
67597;SDS011;62026;39.230;9.122;2023-07-16T00:31:51;17.65;;;3.15;;
67597;SDS011;62026;39.230;9.122;2023-07-16T00:34:17;14.88;;;3.35;;
67597;SDS011;62026;39.230;9.122;2023-07-16T00:36:43;11.60;;;3.17;;
67597;SDS011;62026;39.230;9.122;2023-07-16T00:39:09;10.65;;;2.90;;
67597;SDS011;62026;39.230;9.122;2023-07-16T00:41:35;9.10;;;3.13;;
67597;SDS011;62026;39.230;9.122;2023-07-16T00:44:02;9.18;;;3.00;;
67597;SDS011;62026;39.230;9.122;2023-07-16T00:46:28;9.00;;;2.55;;
67597;SDS011;62026;39.230;9.122;2023-07-16T00:48:54;8.75;;;2.40;;
67597;SDS011;62026;39.230;9.122;2023-07-16T00:51:22;11.10;;;3.00;;
67597;SDS011;62026;39.230;9.122;2023-07-16T00:53:50;11.98;;;3.42;;
67597;SDS011;62026;39.230;9.122;2023-07-16T00:56:17;13.50;;;2.75;;
67597;SDS011;62026;39.230;9.122;2023-07-16T00:58:43;15.05;;;3.05;;
67597;SDS011;62026;39.230;9.122;2023-07-16T01:01:09;12.73;;;3.53;;
67597;SDS011;62026;39.230;9.122;2023-07-16T01:03:35;16.50;;;4.10;;
67597;SDS011;62026;39.230;9.122;2023-07-16T01:06:16;10.38;;;3.15;;
67597;SDS011;62026;39.230;9.122;2023-07-16T01:11:28;10.88;;;3.60;;
67597;SDS011;62026;39.230;9.122;2023-07-16T01:13:56;17.45;;;3.45;;
67597;SDS011;62026;39.230;9.122;2023-07-16T01:16:23;13.48;;;3.28;;
67597;SDS011;62026;39.230;9.122;2023-07-16T01:18:50;20.65;;;2.97;;
67597;SDS011;62026;39.230;9.122;2023-07-16T01:21:21;10.73;;;2.90;;
67597;SDS011;62026;39.230;9.122;2023-07-16T01:29:57;8.48;;;2.60;;
67597;SDS011;62026;39.230;9.122;2023-07-16T01:32:30;7.18;;;2.38;;
67597;SDS011;62026;39.230;9.122;2023-07-16T01:37:27;8.00;;;2.53;;
67597;SDS011;62026;39.230;9.122;2023-07-16T01:39:54;12.52;;;2.78;;
67597;SDS011;62026;39.230;9.122;2023-07-16T01:42:21;13.10;;;2.78;;
67597;SDS011;62026;39.230;9.122;2023-07-16T01:44:47;10.93;;;2.75;;
67597;SDS011;62026;39.230;9.122;2023-07-16T01:47:24;8.35;;;2.58;;
67597;SDS011;62026;39.230;9.122;2023-07-16T01:49:55;8.30;;;2.55;;
67597;SDS011;62026;39.230;9.122;2023-07-16T01:52:21;10.88;;;3.03;;
67597;SDS011;62026;39.230;9.122;2023-07-16T01:54:47;10.82;;;2.78;;
67597;SDS011;62026;39.230;9.122;2023-07-16T01:57:13;8.32;;;2.47;;
67597;SDS011;62026;39.230;9.122;2023-07-16T01:59:40;11.68;;;2.90;;
67597;SDS011;62026;39.230;9.122;2023-07-16T02:02:05;11.85;;;3.05;;
67597;SDS011;62026;39.230;9.122;2023-07-16T02:04:31;10.82;;;2.70;;
67597;SDS011;62026;39.230;9.122;2023-07-16T02:06:57;11.48;;;3.08;;
67597;SDS011;62026;39.230;9.122;2023-07-16T02:09:24;11.20;;;3.20;;
67597;SDS011;62026;39.230;9.122;2023-07-16T02:11:50;9.38;;;3.30;;
67597;SDS011;62026;39.230;9.122;2023-07-16T02:14:17;10.88;;;3.25;;
67597;SDS011;62026;39.230;9.122;2023-07-16T02:16:43;11.50;;;3.42;;
67597;SDS011;62026;39.230;9.122;2023-07-16T02:19:09;14.85;;;3.35;;
67597;SDS011;62026;39.230;9.122;2023-07-16T02:21:35;12.90;;;3.00;;
67597;SDS011;62026;39.230;9.122;2023-07-16T02:24:01;10.02;;;3.10;;
67597;SDS011;62026;39.230;9.122;2023-07-16T02:26:27;9.82;;;3.03;;
67597;SDS011;62026;39.230;9.122;2023-07-16T02:28:53;16.63;;;3.78;;
67597;SDS011;62026;39.230;9.122;2023-07-16T02:31:20;14.15;;;3.40;;
67597;SDS011;62026;39.230;9.122;2023-07-16T02:33:46;13.48;;;3.40;;
67597;SDS011;62026;39.230;9.122;2023-07-16T02:36:12;14.88;;;3.17;;
67597;SDS011;62026;39.230;9.122;2023-07-16T02:38:40;11.15;;;2.60;;
67597;SDS011;62026;39.230;9.122;2023-07-16T02:41:06;16.42;;;3.72;;
67597;SDS011;62026;39.230;9.122;2023-07-16T02:43:33;12.10;;;3.08;;
67597;SDS011;62026;39.230;9.122;2023-07-16T02:45:59;12.23;;;3.60;;
67597;SDS011;62026;39.230;9.122;2023-07-16T02:48:25;16.15;;;3.10;;
67597;SDS011;62026;39.230;9.122;2023-07-16T02:50:51;10.68;;;2.92;;
67597;SDS011;62026;39.230;9.122;2023-07-16T02:53:16;9.98;;;3.38;;
67597;SDS011;62026;39.230;9.122;2023-07-16T02:55:44;12.20;;;3.10;;
67597;SDS011;62026;39.230;9.122;2023-07-16T02:58:11;9.48;;;2.97;;
67597;SDS011;62026;39.230;9.122;2023-07-16T03:00:37;10.10;;;3.33;;
67597;SDS011;62026;39.230;9.122;2023-07-16T03:03:03;11.93;;;3.40;;
67597;SDS011;62026;39.230;9.122;2023-07-16T03:05:30;11.15;;;3.58;;
67597;SDS011;62026;39.230;9.122;2023-07-16T03:07:56;16.80;;;3.45;;
67597;SDS011;62026;39.230;9.122;2023-07-16T03:10:22;12.30;;;3.33;;
67597;SDS011;62026;39.230;9.122;2023-07-16T03:12:48;14.38;;;3.25;;
67597;SDS011;62026;39.230;9.122;2023-07-16T03:15:14;9.10;;;3.28;;
67597;SDS011;62026;39.230;9.122;2023-07-16T03:17:40;10.13;;;3.30;;
67597;SDS011;62026;39.230;9.122;2023-07-16T03:20:06;10.60;;;3.08;;
67597;SDS011;62026;39.230;9.122;2023-07-16T03:22:34;13.70;;;3.60;;
67597;SDS011;62026;39.230;9.122;2023-07-16T03:25:00;14.80;;;3.40;;
67597;SDS011;62026;39.230;9.122;2023-07-16T03:27:26;13.93;;;3.20;;
67597;SDS011;62026;39.230;9.122;2023-07-16T03:29:57;11.83;;;3.30;;
67597;SDS011;62026;39.230;9.122;2023-07-16T03:32:23;11.35;;;3.33;;
67597;SDS011;62026;39.230;9.122;2023-07-16T03:34:49;12.25;;;3.20;;
67597;SDS011;62026;39.230;9.122;2023-07-16T03:37:15;11.60;;;3.25;;
67597;SDS011;62026;39.230;9.122;2023-07-16T03:39:41;7.60;;;2.97;;
67597;SDS011;62026;39.230;9.122;2023-07-16T03:42:08;9.65;;;2.97;;
67597;SDS011;62026;39.230;9.122;2023-07-16T03:44:34;15.00;;;3.05;;
67597;SDS011;62026;39.230;9.122;2023-07-16T03:47:02;9.55;;;2.70;;
67597;SDS011;62026;39.230;9.122;2023-07-16T03:49:28;7.78;;;2.97;;
67597;SDS011;62026;39.230;9.122;2023-07-16T03:51:54;10.30;;;3.00;;
67597;SDS011;62026;39.230;9.122;2023-07-16T03:54:20;11.77;;;3.10;;
67597;SDS011;62026;39.230;9.122;2023-07-16T03:56:47;10.65;;;3.20;;
67597;SDS011;62026;39.230;9.122;2023-07-16T03:59:13;15.55;;;3.80;;
67597;SDS011;62026;39.230;9.122;2023-07-16T04:01:39;10.63;;;3.13;;
67597;SDS011;62026;39.230;9.122;2023-07-16T04:04:05;9.25;;;3.35;;
67597;SDS011;62026;39.230;9.122;2023-07-16T04:06:31;12.00;;;3.42;;
67597;SDS011;62026;39.230;9.122;2023-07-16T04:08:57;15.23;;;3.50;;
67597;SDS011;62026;39.230;9.122;2023-07-16T04:11:23;11.57;;;3.30;;
67597;SDS011;62026;39.230;9.122;2023-07-16T04:13:49;9.98;;;3.60;;
67597;SDS011;62026;39.230;9.122;2023-07-16T04:16:15;12.05;;;3.63;;
67597;SDS011;62026;39.230;9.122;2023-07-16T04:18:41;11.95;;;3.20;;
67597;SDS011;62026;39.230;9.122;2023-07-16T04:21:07;13.30;;;3.50;;
67597;SDS011;62026;39.230;9.122;2023-07-16T04:23:33;14.07;;;3.30;;
67597;SDS011;62026;39.230;9.122;2023-07-16T04:25:59;11.68;;;3.38;;
67597;SDS011;62026;39.230;9.122;2023-07-16T04:28:25;10.55;;;3.58;;
67597;SDS011;62026;39.230;9.122;2023-07-16T04:30:50;16.23;;;3.88;;
67597;SDS011;62026;39.230;9.122;2023-07-16T04:33:16;11.85;;;3.25;;
67597;SDS011;62026;39.230;9.122;2023-07-16T04:35:44;13.40;;;3.42;;
67597;SDS011;62026;39.230;9.122;2023-07-16T04:38:10;12.70;;;3.25;;
67597;SDS011;62026;39.230;9.122;2023-07-16T04:40:36;10.85;;;3.83;;
67597;SDS011;62026;39.230;9.122;2023-07-16T04:43:02;12.25;;;3.42;;
67597;SDS011;62026;39.230;9.122;2023-07-16T04:45:28;8.68;;;3.05;;
67597;SDS011;62026;39.230;9.122;2023-07-16T04:47:54;13.25;;;3.60;;
67597;SDS011;62026;39.230;9.122;2023-07-16T04:50:20;14.63;;;4.63;;
67597;SDS011;62026;39.230;9.122;2023-07-16T04:52:45;8.77;;;3.78;;
67597;SDS011;62026;39.230;9.122;2023-07-16T04:55:11;13.65;;;3.47;;
67597;SDS011;62026;39.230;9.122;2023-07-16T04:57:38;14.98;;;3.50;;
67597;SDS011;62026;39.230;9.122;2023-07-16T05:00:05;13.32;;;3.67;;
67597;SDS011;62026;39.230;9.122;2023-07-16T05:02:33;11.85;;;3.13;;
67597;SDS011;62026;39.230;9.122;2023-07-16T05:04:59;13.38;;;3.53;;
67597;SDS011;62026;39.230;9.122;2023-07-16T05:07:25;14.07;;;3.42;;
67597;SDS011;62026;39.230;9.122;2023-07-16T05:09:51;11.23;;;3.35;;
67597;SDS011;62026;39.230;9.122;2023-07-16T05:12:16;14.55;;;4.15;;
67597;SDS011;62026;39.230;9.122;2023-07-16T05:14:43;10.93;;;3.83;;
67597;SDS011;62026;39.230;9.122;2023-07-16T05:17:13;14.50;;;3.92;;
67597;SDS011;62026;39.230;9.122;2023-07-16T05:19:39;9.07;;;3.10;;
67597;SDS011;62026;39.230;9.122;2023-07-16T05:22:06;16.23;;;3.83;;
67597;SDS011;62026;39.230;9.122;2023-07-16T05:24:32;14.15;;;3.60;;
67597;SDS011;62026;39.230;9.122;2023-07-16T05:26:59;11.45;;;3.20;;
67597;SDS011;62026;39.230;9.122;2023-07-16T05:29:26;15.98;;;3.70;;
67597;SDS011;62026;39.230;9.122;2023-07-16T05:31:52;12.52;;;3.75;;
67597;SDS011;62026;39.230;9.122;2023-07-16T05:34:18;11.27;;;3.90;;
67597;SDS011;62026;39.230;9.122;2023-07-16T05:36:44;17.25;;;3.40;;
67597;SDS011;62026;39.230;9.122;2023-07-16T05:39:10;19.05;;;3.70;;
67597;SDS011;62026;39.230;9.122;2023-07-16T05:41:39;14.73;;;3.58;;
67597;SDS011;62026;39.230;9.122;2023-07-16T05:44:06;14.05;;;3.08;;
67597;SDS011;62026;39.230;9.122;2023-07-16T05:46:33;14.52;;;3.58;;
67597;SDS011;62026;39.230;9.122;2023-07-16T05:48:59;13.38;;;3.22;;
67597;SDS011;62026;39.230;9.122;2023-07-16T05:51:25;11.02;;;3.25;;
67597;SDS011;62026;39.230;9.122;2023-07-16T05:53:51;16.83;;;3.45;;
67597;SDS011;62026;39.230;9.122;2023-07-16T05:56:17;12.27;;;2.90;;
67597;SDS011;62026;39.230;9.122;2023-07-16T05:58:43;13.07;;;3.28;;
67597;SDS011;62026;39.230;9.122;2023-07-16T06:01:09;16.65;;;3.30;;
67597;SDS011;62026;39.230;9.122;2023-07-16T06:03:36;12.38;;;3.50;;
67597;SDS011;62026;39.230;9.122;2023-07-16T06:06:02;14.65;;;3.83;;
67597;SDS011;62026;39.230;9.122;2023-07-16T06:08:28;15.95;;;3.88;;
67597;SDS011;62026;39.230;9.122;2023-07-16T06:10:54;14.43;;;3.80;;
67597;SDS011;62026;39.230;9.122;2023-07-16T06:13:20;12.32;;;4.05;;
67597;SDS011;62026;39.230;9.122;2023-07-16T06:15:47;12.30;;;3.90;;
67597;SDS011;62026;39.230;9.122;2023-07-16T06:18:13;14.02;;;4.18;;
67597;SDS011;62026;39.230;9.122;2023-07-16T06:20:42;13.52;;;3.80;;
67597;SDS011;62026;39.230;9.122;2023-07-16T06:23:12;14.45;;;3.97;;
67597;SDS011;62026;39.230;9.122;2023-07-16T06:25:38;13.30;;;4.25;;
67597;SDS011;62026;39.230;9.122;2023-07-16T06:28:05;12.20;;;4.57;;
67597;SDS011;62026;39.230;9.122;2023-07-16T06:30:31;13.13;;;3.90;;
67597;SDS011;62026;39.230;9.122;2023-07-16T06:32:59;14.27;;;4.40;;
67597;SDS011;62026;39.230;9.122;2023-07-16T06:35:25;19.27;;;4.43;;
67597;SDS011;62026;39.230;9.122;2023-07-16T06:37:51;13.43;;;3.95;;
67597;SDS011;62026;39.230;9.122;2023-07-16T06:40:17;15.95;;;4.68;;
67597;SDS011;62026;39.230;9.122;2023-07-16T06:42:43;19.10;;;4.50;;
67597;SDS011;62026;39.230;9.122;2023-07-16T06:45:09;8.80;;;3.90;;
67597;SDS011;62026;39.230;9.122;2023-07-16T06:47:35;17.40;;;4.38;;
67597;SDS011;62026;39.230;9.122;2023-07-16T06:50:01;17.15;;;4.70;;
67597;SDS011;62026;39.230;9.122;2023-07-16T06:52:28;18.90;;;4.55;;
67597;SDS011;62026;39.230;9.122;2023-07-16T06:54:56;18.60;;;4.10;;
67597;SDS011;62026;39.230;9.122;2023-07-16T06:57:23;17.45;;;4.88;;
67597;SDS011;62026;39.230;9.122;2023-07-16T06:59:49;16.70;;;3.90;;
67597;SDS011;62026;39.230;9.122;2023-07-16T07:02:15;14.60;;;3.85;;
67597;SDS011;62026;39.230;9.122;2023-07-16T07:04:43;16.33;;;4.10;;
67597;SDS011;62026;39.230;9.122;2023-07-16T07:07:09;11.23;;;4.00;;
67597;SDS011;62026;39.230;9.122;2023-07-16T07:09:35;13.80;;;3.80;;
67597;SDS011;62026;39.230;9.122;2023-07-16T07:12:02;14.60;;;4.10;;
67597;SDS011;62026;39.230;9.122;2023-07-16T07:14:29;13.57;;;3.70;;
67597;SDS011;62026;39.230;9.122;2023-07-16T07:16:55;20.65;;;3.55;;
67597;SDS011;62026;39.230;9.122;2023-07-16T07:19:20;14.98;;;3.90;;
67597;SDS011;62026;39.230;9.122;2023-07-16T07:21:46;13.57;;;3.35;;
67597;SDS011;62026;39.230;9.122;2023-07-16T07:24:12;16.73;;;3.40;;
67597;SDS011;62026;39.230;9.122;2023-07-16T07:26:38;12.10;;;3.35;;
67597;SDS011;62026;39.230;9.122;2023-07-16T07:29:04;16.65;;;3.83;;
67597;SDS011;62026;39.230;9.122;2023-07-16T07:31:30;12.38;;;3.33;;
67597;SDS011;62026;39.230;9.122;2023-07-16T07:33:56;16.02;;;4.10;;
67597;SDS011;62026;39.230;9.122;2023-07-16T07:36:23;14.90;;;3.58;;
67597;SDS011;62026;39.230;9.122;2023-07-16T07:38:49;17.40;;;3.90;;
67597;SDS011;62026;39.230;9.122;2023-07-16T07:41:15;9.65;;;3.67;;
67597;SDS011;62026;39.230;9.122;2023-07-16T07:43:42;13.90;;;4.00;;
67597;SDS011;62026;39.230;9.122;2023-07-16T07:46:08;15.93;;;3.50;;
67597;SDS011;62026;39.230;9.122;2023-07-16T07:48:35;13.23;;;3.30;;
67597;SDS011;62026;39.230;9.122;2023-07-16T07:51:02;16.02;;;3.80;;
67597;SDS011;62026;39.230;9.122;2023-07-16T07:53:28;11.13;;;3.40;;
67597;SDS011;62026;39.230;9.122;2023-07-16T07:55:54;16.90;;;3.30;;
67597;SDS011;62026;39.230;9.122;2023-07-16T07:58:20;17.08;;;3.58;;
67597;SDS011;62026;39.230;9.122;2023-07-16T08:00:46;19.23;;;3.65;;
67597;SDS011;62026;39.230;9.122;2023-07-16T08:03:12;11.57;;;3.33;;
67597;SDS011;62026;39.230;9.122;2023-07-16T08:05:38;10.70;;;3.13;;
67597;SDS011;62026;39.230;9.122;2023-07-16T08:08:04;11.02;;;3.67;;
67597;SDS011;62026;39.230;9.122;2023-07-16T08:10:30;10.27;;;3.38;;
67597;SDS011;62026;39.230;9.122;2023-07-16T08:12:56;16.85;;;3.63;;
67597;SDS011;62026;39.230;9.122;2023-07-16T08:15:21;10.70;;;3.05;;
67597;SDS011;62026;39.230;9.122;2023-07-16T08:17:47;13.20;;;3.33;;
67597;SDS011;62026;39.230;9.122;2023-07-16T08:20:14;14.85;;;3.42;;
67597;SDS011;62026;39.230;9.122;2023-07-16T08:22:40;13.50;;;3.75;;
67597;SDS011;62026;39.230;9.122;2023-07-16T08:25:06;14.00;;;3.58;;
67597;SDS011;62026;39.230;9.122;2023-07-16T08:27:32;14.63;;;3.70;;
67597;SDS011;62026;39.230;9.122;2023-07-16T08:29:59;13.68;;;4.10;;
67597;SDS011;62026;39.230;9.122;2023-07-16T08:32:25;12.95;;;3.95;;
67597;SDS011;62026;39.230;9.122;2023-07-16T08:34:52;16.23;;;3.90;;
67597;SDS011;62026;39.230;9.122;2023-07-16T08:37:18;9.15;;;3.65;;
67597;SDS011;62026;39.230;9.122;2023-07-16T08:39:43;8.80;;;3.85;;
67597;SDS011;62026;39.230;9.122;2023-07-16T08:42:10;10.63;;;3.53;;
67597;SDS011;62026;39.230;9.122;2023-07-16T08:44:37;16.25;;;4.20;;
67597;SDS011;62026;39.230;9.122;2023-07-16T08:47:04;13.70;;;4.30;;
67597;SDS011;62026;39.230;9.122;2023-07-16T08:49:32;16.80;;;3.80;;
67597;SDS011;62026;39.230;9.122;2023-07-16T08:52:00;12.25;;;3.33;;
67597;SDS011;62026;39.230;9.122;2023-07-16T08:54:28;8.02;;;3.72;;
67597;SDS011;62026;39.230;9.122;2023-07-16T08:56:54;9.75;;;3.75;;
67597;SDS011;62026;39.230;9.122;2023-07-16T08:59:22;8.85;;;3.70;;
67597;SDS011;62026;39.230;9.122;2023-07-16T09:01:48;10.88;;;4.25;;
67597;SDS011;62026;39.230;9.122;2023-07-16T09:04:14;11.02;;;3.78;;
67597;SDS011;62026;39.230;9.122;2023-07-16T09:06:41;14.57;;;4.00;;
67597;SDS011;62026;39.230;9.122;2023-07-16T09:09:08;8.70;;;3.40;;
67597;SDS011;62026;39.230;9.122;2023-07-16T09:11:48;8.57;;;3.63;;
67597;SDS011;62026;39.230;9.122;2023-07-16T09:14:20;10.90;;;3.72;;
67597;SDS011;62026;39.230;9.122;2023-07-16T09:16:47;15.23;;;4.13;;
67597;SDS011;62026;39.230;9.122;2023-07-16T09:19:18;19.67;;;4.20;;
67597;SDS011;62026;39.230;9.122;2023-07-16T09:21:48;10.30;;;3.92;;
67597;SDS011;62026;39.230;9.122;2023-07-16T09:24:15;11.25;;;4.03;;
67597;SDS011;62026;39.230;9.122;2023-07-16T09:26:48;8.15;;;3.63;;
67597;SDS011;62026;39.230;9.122;2023-07-16T09:29:15;10.85;;;3.78;;
67597;SDS011;62026;39.230;9.122;2023-07-16T09:31:52;9.63;;;3.60;;
67597;SDS011;62026;39.230;9.122;2023-07-16T09:34:23;9.13;;;3.38;;
67597;SDS011;62026;39.230;9.122;2023-07-16T09:36:52;14.98;;;3.85;;
67597;SDS011;62026;39.230;9.122;2023-07-16T09:39:19;14.32;;;3.60;;
67597;SDS011;62026;39.230;9.122;2023-07-16T09:41:46;10.50;;;3.30;;
67597;SDS011;62026;39.230;9.122;2023-07-16T09:44:14;12.30;;;3.80;;
67597;SDS011;62026;39.230;9.122;2023-07-16T09:46:44;8.02;;;3.22;;
67597;SDS011;62026;39.230;9.122;2023-07-16T09:49:12;12.10;;;4.30;;
67597;SDS011;62026;39.230;9.122;2023-07-16T09:51:40;10.25;;;4.00;;
67597;SDS011;62026;39.230;9.122;2023-07-16T09:54:09;11.73;;;3.38;;
67597;SDS011;62026;39.230;9.122;2023-07-16T09:56:46;7.25;;;3.60;;
67597;SDS011;62026;39.230;9.122;2023-07-16T09:59:20;13.23;;;3.58;;
67597;SDS011;62026;39.230;9.122;2023-07-16T10:01:50;8.50;;;3.90;;
67597;SDS011;62026;39.230;9.122;2023-07-16T10:04:18;13.80;;;3.47;;
67597;SDS011;62026;39.230;9.122;2023-07-16T10:06:55;11.57;;;3.70;;
67597;SDS011;62026;39.230;9.122;2023-07-16T10:12:17;9.57;;;3.53;;
67597;SDS011;62026;39.230;9.122;2023-07-16T10:14:45;12.18;;;3.63;;
67597;SDS011;62026;39.230;9.122;2023-07-16T10:17:26;12.05;;;3.42;;
67597;SDS011;62026;39.230;9.122;2023-07-16T10:19:59;9.33;;;3.73;;
67597;SDS011;62026;39.230;9.122;2023-07-16T10:22:46;9.88;;;3.60;;
67597;SDS011;62026;39.230;9.122;2023-07-16T10:27:47;11.30;;;3.50;;
67597;SDS011;62026;39.230;9.122;2023-07-16T10:32:42;7.20;;;3.40;;
67597;SDS011;62026;39.230;9.122;2023-07-16T10:35:09;13.40;;;3.85;;
67597;SDS011;62026;39.230;9.122;2023-07-16T10:37:36;11.25;;;3.60;;
67597;SDS011;62026;39.230;9.122;2023-07-16T10:40:05;8.82;;;3.42;;
67597;SDS011;62026;39.230;9.122;2023-07-16T10:42:37;8.02;;;3.20;;
67597;SDS011;62026;39.230;9.122;2023-07-16T10:45:07;6.50;;;3.08;;
67597;SDS011;62026;39.230;9.122;2023-07-16T10:47:35;7.50;;;3.22;;
67597;SDS011;62026;39.230;9.122;2023-07-16T10:50:05;20.30;;;3.47;;
67597;SDS011;62026;39.230;9.122;2023-07-16T10:52:35;9.25;;;3.20;;
67597;SDS011;62026;39.230;9.122;2023-07-16T10:55:02;9.70;;;3.22;;
67597;SDS011;62026;39.230;9.122;2023-07-16T10:57:29;10.68;;;3.25;;
67597;SDS011;62026;39.230;9.122;2023-07-16T10:59:56;9.00;;;3.30;;
67597;SDS011;62026;39.230;9.122;2023-07-16T11:02:24;8.60;;;2.92;;
67597;SDS011;62026;39.230;9.122;2023-07-16T11:04:51;5.13;;;2.95;;
67597;SDS011;62026;39.230;9.122;2023-07-16T11:07:22;8.93;;;3.63;;
67597;SDS011;62026;39.230;9.122;2023-07-16T11:09:49;7.53;;;2.85;;
67597;SDS011;62026;39.230;9.122;2023-07-16T11:12:20;14.97;;;3.73;;
67597;SDS011;62026;39.230;9.122;2023-07-16T11:14:48;18.13;;;4.00;;
67597;SDS011;62026;39.230;9.122;2023-07-16T11:17:17;11.05;;;3.03;;
67597;SDS011;62026;39.230;9.122;2023-07-16T11:19:46;8.95;;;2.70;;
67597;SDS011;62026;39.230;9.122;2023-07-16T11:22:14;8.43;;;2.72;;
67597;SDS011;62026;39.230;9.122;2023-07-16T11:27:20;7.00;;;2.50;;
67597;SDS011;62026;39.230;9.122;2023-07-16T11:29:55;7.85;;;2.90;;
67597;SDS011;62026;39.230;9.122;2023-07-16T11:34:57;9.80;;;2.53;;
67597;SDS011;62026;39.230;9.122;2023-07-16T11:37:25;10.18;;;2.75;;
67597;SDS011;62026;39.230;9.122;2023-07-16T11:39:58;8.38;;;2.53;;
67597;SDS011;62026;39.230;9.122;2023-07-16T11:42:31;8.23;;;2.70;;
67597;SDS011;62026;39.230;9.122;2023-07-16T11:45:02;6.35;;;2.25;;
67597;SDS011;62026;39.230;9.122;2023-07-16T11:47:30;11.52;;;2.35;;
67597;SDS011;62026;39.230;9.122;2023-07-16T11:49:57;13.38;;;2.50;;
67597;SDS011;62026;39.230;9.122;2023-07-16T11:52:24;6.45;;;2.58;;
67597;SDS011;62026;39.230;9.122;2023-07-16T11:54:52;8.88;;;2.55;;
67597;SDS011;62026;39.230;9.122;2023-07-16T11:57:22;10.20;;;2.67;;
67597;SDS011;62026;39.230;9.122;2023-07-16T11:59:48;7.85;;;2.88;;
67597;SDS011;62026;39.230;9.122;2023-07-16T12:02:14;8.35;;;2.60;;
67597;SDS011;62026;39.230;9.122;2023-07-16T12:04:40;10.60;;;2.70;;
67597;SDS011;62026;39.230;9.122;2023-07-16T12:07:06;8.40;;;2.85;;
67597;SDS011;62026;39.230;9.122;2023-07-16T12:09:33;11.30;;;2.90;;
67597;SDS011;62026;39.230;9.122;2023-07-16T12:11:59;7.72;;;2.78;;
67597;SDS011;62026;39.230;9.122;2023-07-16T12:14:26;8.80;;;2.88;;
67597;SDS011;62026;39.230;9.122;2023-07-16T12:16:52;11.65;;;2.70;;
67597;SDS011;62026;39.230;9.122;2023-07-16T12:19:18;6.72;;;2.67;;
67597;SDS011;62026;39.230;9.122;2023-07-16T12:21:44;8.50;;;2.45;;
67597;SDS011;62026;39.230;9.122;2023-07-16T12:24:10;11.43;;;2.90;;
67597;SDS011;62026;39.230;9.122;2023-07-16T12:26:37;7.82;;;2.95;;
67597;SDS011;62026;39.230;9.122;2023-07-16T12:29:03;11.98;;;2.83;;
67597;SDS011;62026;39.230;9.122;2023-07-16T12:31:32;8.52;;;3.00;;
67597;SDS011;62026;39.230;9.122;2023-07-16T12:33:59;9.30;;;3.25;;
67597;SDS011;62026;39.230;9.122;2023-07-16T12:36:29;9.63;;;3.00;;
67597;SDS011;62026;39.230;9.122;2023-07-16T12:38:56;8.52;;;2.83;;
67597;SDS011;62026;39.230;9.122;2023-07-16T12:41:22;8.55;;;2.80;;
67597;SDS011;62026;39.230;9.122;2023-07-16T12:43:48;9.25;;;2.72;;
67597;SDS011;62026;39.230;9.122;2023-07-16T12:46:14;7.53;;;2.80;;
67597;SDS011;62026;39.230;9.122;2023-07-16T12:48:40;10.60;;;3.00;;
67597;SDS011;62026;39.230;9.122;2023-07-16T12:51:06;9.60;;;2.65;;
67597;SDS011;62026;39.230;9.122;2023-07-16T12:53:32;7.65;;;3.10;;
67597;SDS011;62026;39.230;9.122;2023-07-16T12:55:58;9.75;;;2.80;;
67597;SDS011;62026;39.230;9.122;2023-07-16T12:58:24;11.38;;;2.88;;
67597;SDS011;62026;39.230;9.122;2023-07-16T13:00:51;8.35;;;2.97;;
67597;SDS011;62026;39.230;9.122;2023-07-16T13:03:17;8.88;;;3.35;;
67597;SDS011;62026;39.230;9.122;2023-07-16T13:05:43;15.18;;;3.33;;
67597;SDS011;62026;39.230;9.122;2023-07-16T13:08:10;6.43;;;3.35;;
67597;SDS011;62026;39.230;9.122;2023-07-16T13:10:36;9.50;;;3.25;;
67597;SDS011;62026;39.230;9.122;2023-07-16T13:13:04;8.02;;;3.25;;
67597;SDS011;62026;39.230;9.122;2023-07-16T13:15:30;5.82;;;3.03;;
67597;SDS011;62026;39.230;9.122;2023-07-16T13:17:57;8.95;;;3.00;;
67597;SDS011;62026;39.230;9.122;2023-07-16T13:20:23;8.65;;;3.38;;
67597;SDS011;62026;39.230;9.122;2023-07-16T13:22:49;5.88;;;3.17;;
67597;SDS011;62026;39.230;9.122;2023-07-16T13:25:16;7.10;;;3.08;;
67597;SDS011;62026;39.230;9.122;2023-07-16T13:27:42;8.30;;;3.10;;
67597;SDS011;62026;39.230;9.122;2023-07-16T13:30:08;8.82;;;3.38;;
67597;SDS011;62026;39.230;9.122;2023-07-16T13:32:34;5.60;;;3.08;;
67597;SDS011;62026;39.230;9.122;2023-07-16T13:35:00;10.73;;;3.40;;
67597;SDS011;62026;39.230;9.122;2023-07-16T13:37:26;8.30;;;3.55;;
67597;SDS011;62026;39.230;9.122;2023-07-16T13:39:52;6.82;;;3.15;;
67597;SDS011;62026;39.230;9.122;2023-07-16T13:42:19;8.38;;;3.55;;
67597;SDS011;62026;39.230;9.122;2023-07-16T13:44:45;6.75;;;3.15;;
67597;SDS011;62026;39.230;9.122;2023-07-16T13:47:11;10.70;;;3.58;;
67597;SDS011;62026;39.230;9.122;2023-07-16T13:49:36;13.02;;;4.07;;
67597;SDS011;62026;39.230;9.122;2023-07-16T13:52:02;7.50;;;3.53;;
67597;SDS011;62026;39.230;9.122;2023-07-16T13:54:29;8.20;;;3.28;;
67597;SDS011;62026;39.230;9.122;2023-07-16T13:56:55;8.90;;;3.72;;
67597;SDS011;62026;39.230;9.122;2023-07-16T13:59:21;6.47;;;3.10;;
67597;SDS011;62026;39.230;9.122;2023-07-16T14:01:47;9.20;;;3.60;;
67597;SDS011;62026;39.230;9.122;2023-07-16T14:04:23;6.97;;;3.50;;
67597;SDS011;62026;39.230;9.122;2023-07-16T14:06:49;8.20;;;3.25;;
67597;SDS011;62026;39.230;9.122;2023-07-16T14:09:15;7.10;;;3.10;;
67597;SDS011;62026;39.230;9.122;2023-07-16T14:11:41;5.63;;;3.10;;
67597;SDS011;62026;39.230;9.122;2023-07-16T14:14:09;12.80;;;4.07;;
67597;SDS011;62026;39.230;9.122;2023-07-16T14:16:35;13.10;;;3.58;;
67597;SDS011;62026;39.230;9.122;2023-07-16T14:19:01;9.23;;;3.63;;
67597;SDS011;62026;39.230;9.122;2023-07-16T14:21:27;8.50;;;3.65;;
67597;SDS011;62026;39.230;9.122;2023-07-16T14:23:54;7.63;;;3.33;;
67597;SDS011;62026;39.230;9.122;2023-07-16T14:26:19;6.65;;;3.47;;
67597;SDS011;62026;39.230;9.122;2023-07-16T14:28:45;7.63;;;3.60;;
67597;SDS011;62026;39.230;9.122;2023-07-16T14:31:11;9.82;;;3.30;;
67597;SDS011;62026;39.230;9.122;2023-07-16T14:33:38;6.53;;;3.30;;
67597;SDS011;62026;39.230;9.122;2023-07-16T14:36:04;5.78;;;3.53;;
67597;SDS011;62026;39.230;9.122;2023-07-16T14:38:30;10.70;;;3.92;;
67597;SDS011;62026;39.230;9.122;2023-07-16T14:40:56;7.43;;;3.70;;
67597;SDS011;62026;39.230;9.122;2023-07-16T14:43:22;7.88;;;2.97;;
67597;SDS011;62026;39.230;9.122;2023-07-16T14:45:48;5.78;;;3.35;;
67597;SDS011;62026;39.230;9.122;2023-07-16T14:48:14;9.75;;;3.25;;
67597;SDS011;62026;39.230;9.122;2023-07-16T14:50:40;9.35;;;3.55;;
67597;SDS011;62026;39.230;9.122;2023-07-16T14:53:06;11.85;;;4.15;;
67597;SDS011;62026;39.230;9.122;2023-07-16T14:55:32;8.25;;;3.22;;
67597;SDS011;62026;39.230;9.122;2023-07-16T14:57:58;6.20;;;3.47;;
67597;SDS011;62026;39.230;9.122;2023-07-16T15:00:24;6.00;;;3.15;;